Weather observations for the past three days for
Winder, Winder-Barrow Airport
Metric (Imperial)
Date Time (edt) Wind (kph) Vis. (km) Weather Sky Cond. Temperature (ºC) Relative Humidity Wind Chill (°C) Heat Index (°C) Pressure Precipitation (cm)
Air Dwpt 6 hour altimeter (cm) sea level (mb) 1 hr 3 hr 6 hr
Max. Min.
02 14:35 Calm 16.09 Overcast SCT047 BKN060 OVC075 18 11 64% 75.95 0.0
02 14:15 Calm 16.09 Mostly Cloudy SCT047 BKN070 BKN110 20 9 49% 75.95 0.0
02 13:55 Calm 16.09 Overcast SCT042 BKN070 OVC120 19 9 52% 75.95 0.0
02 13:35 Calm 16.09 Mostly Cloudy SCT042 SCT055 BKN120 18 8 52% 75.97 0.0
02 13:15 Calm 16.09 Mostly Cloudy SCT033 BKN120 18 9 56% 76 0.0
02 12:55 Calm 16.09 Partly Cloudy SCT025 SCT033 SCT110 17 11 68% 76 0.0
02 12:35 Calm 16.09 Overcast BKN023 BKN032 OVC120 17 11 68% 76.02 0.0
02 12:15 Calm 16.09 Overcast SCT023 OVC120 17 11 68% 76.05 0.0
02 11:35 Calm 16.09 Mostly Cloudy SCT019 BKN120 16 11 72% 76.02 0.0
02 11:15 Calm 16.09 Overcast OVC110 16 11 72% 76.05 0.0
02 10:55 Calm 16.09 Overcast OVC110 15 11 77% 76.05 0.0
02 10:35 Calm 16.09 Overcast OVC110 15 10 72% 76 0.0
02 10:15 Calm 16.09 Overcast OVC110 15 10 72% 76 0.0
02 09:55 Calm 16.09 Overcast OVC110 14 10 77% 75.97 0.0
02 09:35 Calm 16.09 Overcast OVC100 14 10 77% 75.97 0.0
02 08:55 Calm 16.09 Overcast OVC100 13 11 88% 76.02 0.0
02 08:35 Calm 16.09 Overcast OVC110 13 11 88% 75.97 0.0
02 08:15 Calm 16.09 Overcast SCT044 BKN090 OVC110 12 12 100% 75.97 0.0
02 07:55 Calm 16.09 Light Rain SCT070 OVC090 12 11 94% 75.92 0.0
02 07:35 Calm 16.09 Overcast BKN070 OVC100 12 11 94% 75.97 0.0
02 07:15 Calm 16.09 Overcast OVC100 12 11 94% 76 0.0
02 06:55 Calm 16.09 Overcast OVC090 12 11 94% 75.97 0.0
02 06:35 Calm 16.09 Overcast OVC090 12 11 94% 75.87 0.0
02 06:15 Calm 16.09 Overcast OVC100 12 11 94% 75.9 0.0
02 05:55 Calm 16.09 Overcast OVC100 12 11 94% 75.9 0.0
02 05:35 Calm 16.09 Overcast OVC100 12 11 94% 75.92 0.0
02 05:15 Calm 16.09 Overcast OVC090 12 11 94% 75.87 0.0
02 04:55 Calm 16.09 Overcast OVC090 12 11 94% 75.92 0.0
02 04:35 Calm 16.09 Overcast OVC090 12 11 94% 75.92 0.0
02 04:15 Calm 16.09 Light Drizzle BKN090 OVC120 12 11 94% 75.92 0.0
02 03:55 Calm 16.09 Light Rain OVC090 13 11 88% 75.95 0.0
02 03:35 Calm 16.09 Rain OVC080 13 10 82% 75.95 0.0
02 03:15 Calm 16.09 Drizzle OVC090 14 10 77% 75.97 0.0
02 02:55 Calm 16.09 Light Rain SCT049 SCT075 OVC090 15 8 63% 75.97 0.0
02 02:35 Calm 16.09 Light Drizzle SCT065 SCT075 OVC090 15 8 63% 75.97 0.0
02 02:15 Calm 16.09 Overcast SCT070 SCT075 OVC100 14 10 77% 75.95 0.0
02 01:55 Calm 16.09 Overcast OVC100 15 8 63% 75.97 0.0
02 01:35 Calm 16.09 Overcast SCT095 OVC110 15 9 68% 75.95 0.0
02 01:15 Calm 16.09 Overcast OVC120 15 9 68% 76 0.0
02 00:55 Calm 16.09 Overcast OVC120 15 9 68% 76 0.0
02 00:35 Calm 16.09 Overcast OVC120 15 9 68% 76 0.0
02 00:15 Calm 16.09 Overcast OVC110 15 9 68% 76.05 0.0
01 23:55 Calm 16.09 Mostly Cloudy BKN100 BKN120 16 9 63% 76.05 0.0
01 23:35 Calm 16.09 Mostly Cloudy BKN120 16 9 63% 76.05 0.0
01 23:15 Calm 16.09 Overcast OVC120 16 9 63% 76.05 0.0
01 22:55 Calm 16.09 Mostly Cloudy BKN110 16 10 68% 76.07 0.0
01 22:35 Calm 16.09 Mostly Cloudy BKN110 16 9 63% 76.07 0.0
01 22:15 Calm 16.09 Mostly Cloudy BKN120 16 9 63% 76.05 0.0
01 21:55 Calm 16.09 Partly Cloudy SCT120 16 10 68% 76.05 0.0
01 21:35 Calm 16.09 Overcast OVC120 16 10 68% 76.02 0.0
01 21:15 Calm 16.09 Overcast OVC120 16 10 68% 76.02 0.0
01 20:55 Calm 16.09 Mostly Cloudy BKN120 16 10 68% 76.02 0.0
01 20:35 Calm 16.09 Partly Cloudy SCT120 16 10 68% 76.02 0.0
01 20:15 Calm 16.09 Partly Cloudy SCT120 16 10 68% 76 0.0
01 19:55 Calm 16.09 Partly Cloudy SCT120 17 10 64% 76 0.0
01 19:35 Calm 16.09 Partly Cloudy SCT120 17 10 64% 75.97 0.0
01 19:15 Calm 16.09 Partly Cloudy SCT120 17 9 60% 75.97 0.0
01 18:55 Calm 16.09 Partly Cloudy SCT120 17 8 56% 75.95 0.0
01 18:35 Calm 16.09 Partly Cloudy SCT120 17 8 56% 75.95 0.0
01 18:15 Calm 16.09 Fair CLR 18 8 52% 75.97 0.0
01 17:55 Calm 16.09 Fair CLR 18 8 52% 76 0.0
01 17:35 Calm 16.09 Fair CLR 18 8 52% 76 0.0
01 17:15 Calm 16.09 Partly Cloudy SCT100 18 8 52% 76.02 0.0
01 16:55 Calm 16.09 Partly Cloudy SCT100 18 8 52% 76.05 0.0
01 16:35 Calm 16.09 Partly Cloudy SCT100 18 8 52% 76.05 0.0
01 16:15 Calm 16.09 Fair CLR 17 8 56% 76.07 0.0
01 15:55 Calm 16.09 Fair CLR 17 8 56% 76.05 0.0
01 15:35 Calm 16.09 Fair CLR 17 8 56% 76.07 0.0
01 15:15 Calm 16.09 Fair CLR 17 8 56% 76.1 0.0
01 14:55 Calm 16.09 Fair CLR 17 7 52% 76.12 0.0
01 14:35 Calm 16.09 Fair CLR 17 8 56% 76.12 0.0
01 14:15 Calm 16.09 Fair CLR 16 7 55% 76.15 0.0
01 13:55 Calm 16.09 Partly Cloudy SCT120 16 7 55% 76.12 0.0
01 13:35 Calm 16.09 Partly Cloudy SCT120 16 7 55% 76.15 0.0
01 13:15 Calm 16.09 Fair CLR 16 7 55% 76.15 0.0
01 12:55 Calm 16.09 Fair CLR 16 6 52% 76.17 0.0
01 12:35 Calm 16.09 Fair CLR 16 6 52% 76.17 0.0
01 12:15 Calm 16.09 Fair CLR 15 6 55% 76.17 0.0
01 11:55 Calm 0.00 Fair CLR 15 6 55% 76.2 0.0 0.15
01 11:15 Calm 16.09 Fair CLR 15 5 51% 76.2 0.0
01 10:55 Calm 16.09 Fair CLR 15 5 51% 76.17 0.0
01 10:35 Calm 16.09 Fair CLR 15 6 55% 76.17 0.0
01 10:15 Calm 16.09 Fair CLR 14 6 59% 76.17 0.0
01 09:55 Calm 16.09 Fair CLR 14 6 59% 76.17 0.0
01 09:35 Calm 16.09 Fair CLR 14 6 59% 76.15 0.0
01 09:15 Calm 16.09 Fair CLR 13 7 67% 76.15 0.0
01 08:55 Calm 16.09 Fair CLR 13 6 63% 76.15 0.0
01 08:35 Calm 16.09 Fair CLR 13 7 67% 76.12 0.0
01 08:15 Calm 16.09 Fair CLR 13 7 67% 76.1 0.0
01 07:55 Calm 16.09 Fair CLR 13 7 67% 76.07 0.0
01 07:35 Calm 16.09 Partly Cloudy SCT120 13 7 67% 76.07 0.0
01 07:15 Calm 16.09 Partly Cloudy SCT120 13 7 67% 76.05 0.0
01 06:55 Calm 16.09 Partly Cloudy SCT120 13 8 72% 76.05 0.0
01 06:35 Calm 16.09 Partly Cloudy SCT120 13 8 72% 76.02 0.0
01 06:15 Calm 16.09 Mostly Cloudy BKN120 13 8 72% 76 0.0
01 05:55 Calm 16.09 Partly Cloudy SCT110 13 8 72% 75.97 0.0
01 05:35 Calm 16.09 Partly Cloudy SCT120 13 8 72% 76.02 0.0
01 05:15 Calm 16.09 Fair CLR 13 9 77% 76.05 0.0
01 04:55 Calm 16.09 Fair CLR 13 9 77% 76.02 0.0
01 04:35 Calm 16.09 Fair CLR 13 8 72% 76.02 0.0
01 04:15 Calm 16.09 Fair CLR 14 7 63% 76 0.0
01 03:55 Calm 16.09 Partly Cloudy SCT120 14 7 63% 76 0.0
01 03:35 Calm 16.09 Partly Cloudy SCT120 15 7 59% 75.95 0.0
01 03:15 Calm 16.09 Partly Cloudy SCT120 14 8 67% 76 0.0
01 02:55 Calm 16.09 Partly Cloudy SCT120 14 7 63% 76 0.0
01 02:35 Calm 16.09 Partly Cloudy SCT120 14 8 67% 76 0.0
01 02:15 Calm 16.09 Fair CLR 15 8 63% 76 0.0
01 01:55 Calm 16.09 Fair CLR 14 8 67% 76 0.0
01 01:35 Calm 16.09 Fair CLR 14 8 67% 76.02 0.0
01 01:15 Calm 16.09 Fair CLR 14 8 67% 76 0.0
01 00:55 Calm 16.09 Fair CLR 15 8 63% 76.02 0.0
01 00:35 Calm 16.09 Fair CLR 15 8 63% 76.02 0.0
01 00:15 Calm 16.09 Fair CLR 15 8 63% 76 0.0
30 23:55 Calm 16.09 Fair CLR 15 8 63% 76 0.0
30 23:35 Calm 16.09 Fair CLR 15 8 63% 76.02 0.0
30 23:15 Calm 16.09 Fair CLR 15 8 63% 76.05 0.0
30 22:55 Calm 16.09 Fair CLR 16 9 63% 76.02 0.0
30 22:35 Calm 16.09 Fair CLR 16 9 63% 76.02 0.0
30 22:15 Calm 16.09 Fair CLR 16 9 63% 76 0.0
30 21:55 Calm 16.09 Fair CLR 16 9 63% 76 0.0 0.03
30 21:35 Calm 16.09 Fair CLR 17 9 60% 75.97 0.0 0.03
30 21:15 Calm 16.09 Fair CLR 17 9 60% 75.95 0.0
30 20:55 Calm 16.09 Fair CLR 17 10 64% 75.95 0.0
30 20:35 Calm 16.09 Fair CLR 18 10 60% 75.92 0.0
30 20:15 Calm 16.09 Fair CLR 18 10 60% 75.9 0.0
30 19:35 Calm 16.09 Fair CLR 20 11 56% 75.87 0.0
30 19:15 Calm 16.09 Fair CLR 20 11 56% 75.84 0.0
30 18:55 Calm 16.09 Fair CLR 21 8 43% 75.84 0.0
30 18:35 Calm 16.09 Fair CLR 21 8 43% 75.82 0.0
30 18:15 Calm 16.09 Fair CLR 22 8 41% 75.84 0.0
30 17:55 Calm 16.09 Fair CLR 22 6 36% 75.82 0.0
30 17:35 Calm 16.09 Fair CLR 22 5 33% 75.82 0.0
30 17:15 Calm 16.09 Fair CLR 23 6 33% 75.82 0.0
30 16:55 Calm 16.09 Fair CLR 22 8 41% 75.82 0.0
30 16:35 Calm 16.09 Fair CLR 23 10 44% 75.82 0.0
30 16:15 Calm 16.09 Fair CLR 23 11 47% 75.84 0.0
30 15:55 Calm 16.09 Fair CLR 23 11 47% 75.87 0.0
30 15:35 Calm 16.09 Fair CLR 22 11 50% 75.87 0.0
30 15:15 Calm 16.09 Partly Cloudy SCT039 23 12 50% 75.84 0.0
30 14:55 Calm 16.09 Mostly Cloudy BKN039 22 13 57% 75.87 0.0
30 14:35 Calm 16.09 Partly Cloudy SCT032 SCT041 22 13 57% 75.87 0.0
30 14:15 Calm 16.09 Partly Cloudy SCT032 21 14 64% 75.9 0.0
30 13:55 Calm 16.09 Partly Cloudy SCT027 21 13 60% 75.87 0.0
30 13:35 Calm 16.09 Mostly Cloudy SCT025 BKN030 20 14 69% 75.9 0.0
30 13:15 Calm 16.09 Mostly Cloudy BKN021 19 14 73% 75.95 0.0
30 12:55 Calm 16.09 Overcast OVC019 18 13 73% 75.95 0.0
30 12:35 Calm 16.09 Mostly Cloudy BKN019 18 13 73% 75.95 0.0
30 12:15 Calm 16.09 Overcast OVC019 18 13 73% 75.95 0.0
30 11:55 Calm 16.09 Overcast OVC017 17 14 83% 75.95 0.0 0.03
30 11:35 Calm 16.09 Overcast OVC015 17 14 83% 75.95 0.0
30 11:15 Calm 16.09 Overcast OVC015 18 14 78% 75.95 0.0
30 10:55 Calm 16.09 Overcast OVC015 17 15 88% 75.92 0.0
30 10:35 Calm 16.09 Overcast OVC015 17 15 88% 75.92 0.0
30 10:15 Calm 16.09 Mostly Cloudy BKN011 BKN016 17 15 88% 75.92 0.0
30 09:55 Calm 16.09 Mostly Cloudy BKN009 BKN014 17 16 94% 75.9 0.0
30 09:35 Calm 16.09 Partly Cloudy SCT009 17 15 88% 75.87 0.0
30 09:15 Calm 16.09 Partly Cloudy SCT120 17 16 94% 75.84 0.0
30 08:55 Calm 16.09 Overcast SCT080 SCT100 OVC120 16 15 94% 75.9 0.0 0.03
30 08:35 Calm 16.09 Overcast OVC100 16 15 94% 75.79 0.0 0.03
30 08:15 Calm 16.09 Overcast SCT055 OVC110 16 15 94% 75.79 0.0
30 07:55 Calm 16.09 Light Rain SCT041 SCT065 OVC110 16 15 94% 75.82 0.0
30 07:35 Calm 16.09 Light Rain OVC110 16 15 94% 75.82 0.0
30 07:15 Calm 16.09 Mostly Cloudy BKN110 16 15 94% 75.82 0.0
30 06:55 Calm 16.09 Partly Cloudy SCT055 16 15 94% 75.84 0.0
30 06:35 Calm 16.09 Overcast OVC055 16 15 94% 75.79 0.0
30 06:15 Calm 16.09 Overcast OVC055 16 15 94% 75.79 0.0
30 05:55 Calm 16.09 Overcast SCT055 SCT100 OVC120 16 15 94% 75.82 0.0
30 05:35 Calm 16.09 Mostly Cloudy BKN120 17 16 94% 75.79 0.0
30 05:15 Calm 16.09 Partly Cloudy SCT120 17 16 94% 75.77 0.0
30 04:55 Calm 16.09 Thunderstorm Light Drizzle in Vicinity SCT095 SCT120 17 16 94% 75.79 0.0
30 04:35 Calm 16.09 Overcast SCT095 OVC120 16 16 100% 75.77 0.0
30 04:15 Calm 16.09 Thunderstorm Light Rain in Vicinity SCT080 OVC095 17 16 94% 75.72 0.0
30 03:55 Calm 11.27 Thunderstorm Rain in Vicinity SCT060 SCT085 OVC090 17 16 94% 75.74 0.0 0.03
30 03:35 Calm 8.05 Thunderstorm Rain SCT010 BKN041 OVC085 17 16 94% 75.82 0.0 0.03
30 03:15 Calm 16.09 Thunderstorm Rain SCT014 BKN060 OVC095 19 17 88% 75.84 0.0 0.03
30 02:55 Calm 16.09 Partly Cloudy SCT090 20 18 88% 75.74 0.0
30 02:35 Calm 16.09 Fair CLR 20 18 88% 75.74 0.0
30 02:15 Calm 16.09 Thunderstorm in Vicinity CLR 20 17 83% 75.77 0.0
30 01:55 Calm 8.05 Partly Cloudy with Haze SCT038 21 18 83% 75.79 0.0
30 01:35 Calm 16.09 Mostly Cloudy BKN035 BKN042 BKN050 21 18 83% 75.82 0.0
30 01:15 Calm 16.09 Overcast BKN032 BKN039 OVC045 21 18 83% 75.84 0.0
30 00:55 Calm 16.09 Mostly Cloudy BKN030 BKN037 BKN050 21 18 83% 75.87 0.0
30 00:35 Calm 16.09 Partly Cloudy SCT037 SCT050 21 17 78% 75.87 0.0
30 00:15 Calm 16.09 Partly Cloudy SCT034 SCT041 SCT048 21 17 78% 75.87 0.0
29 23:55 Calm 16.09 Partly Cloudy SCT050 21 17 78% 75.87 0.0 0.03
29 23:35 Calm 16.09 Fair CLR 21 17 78% 75.9 0.0 0.03
29 23:15 Calm 16.09 Fair CLR 21 17 78% 75.92 0.0
29 22:55 Calm 16.09 Fair CLR 21 17 78% 75.92 0.0
29 22:35 Calm 16.09 Fair CLR 22 17 73% 75.92 0.0
29 22:15 Calm 16.09 Fair CLR 22 17 73% 75.9 0.0
29 21:55 Calm 16.09 Fair CLR 22 17 73% 75.9 0.0
29 21:35 Calm 16.09 Fair CLR 22 17 73% 75.9 0.0
29 21:15 Calm 16.09 Fair CLR 23 17 69% 75.84 0.0
29 20:55 Calm 16.09 Fair CLR 23 17 69% 75.84 0.0 0.03
29 20:35 Calm 16.09 Fair CLR 23 17 69% 75.84 0.0
29 20:15 Calm 16.09 Fair CLR 24 17 65% 25 75.84 0.0
29 19:55 Calm 16.09 Mostly Cloudy BKN045 BKN060 25 17 61% 26 75.82 0.0
29 19:35 Calm 16.09 Mostly Cloudy BKN047 BKN065 25 17 61% 26 75.77 0.0
29 19:15 Calm 16.09 Partly Cloudy SCT045 SCT070 SCT100 26 17 58% 27 75.79 0.0
29 18:55 Calm 16.09 Partly Cloudy SCT047 SCT070 SCT100 26 17 58% 27 75.79 0.0 0.03
29 18:35 Calm 16.09 Partly Cloudy SCT049 SCT055 SCT070 26 17 58% 27 75.79 0.0 0.03
29 18:15 Calm 16.09 Mostly Cloudy SCT049 SCT055 BKN070 27 17 54% 28 75.79 0.0
29 17:55 Calm 16.09 Partly Cloudy SCT049 SCT070 27 17 54% 28 75.77 0.0
29 17:35 Calm 16.09 Mostly Cloudy BKN049 BKN060 27 17 54% 28 75.77 0.0
29 17:15 Calm 16.09 Partly Cloudy SCT046 SCT060 27 17 54% 28 75.77 0.0
29 16:55 Calm 16.09 Partly Cloudy SCT048 SCT060 28 17 51% 29 75.79 0.0
29 16:35 Calm 16.09 Mostly Cloudy BKN049 BKN060 BKN075 27 17 54% 28 75.82 0.0
29 16:15 Calm 16.09 Mostly Cloudy SCT047 SCT060 BKN090 27 17 54% 28 75.84 0.0
29 15:55 Calm 16.09 Partly Cloudy SCT047 SCT055 28 17 51% 29 75.9 0.0
29 15:35 Calm 16.09 Partly Cloudy SCT047 SCT060 27 17 54% 28 75.9 0.0
Date Time (edt) Wind (kph) Vis. (km) Weather Sky Cond. Air Dwpt Max. Min. Relative Humidity Wind Chill (°C) Heat Index (°C) altimeter (cm) sea level (mb) 1 hr 3 hr 6 hr
6 hour
Temperature (ºC) Pressure Precipitation (cm)